sensor_id;sensor_type;location;lat;lon;timestamp;temperature;humidity
58951;DHT22;44730;53.158;6.398;2023-04-09T00:01:09;8.70;99.90
58951;DHT22;44730;53.158;6.398;2023-04-09T00:03:35;8.60;99.90
58951;DHT22;44730;53.158;6.398;2023-04-09T00:06:02;8.60;99.90
58951;DHT22;44730;53.158;6.398;2023-04-09T00:08:27;8.60;99.90
58951;DHT22;44730;53.158;6.398;2023-04-09T00:10:53;8.60;99.90
58951;DHT22;44730;53.158;6.398;2023-04-09T00:13:20;8.50;99.90
58951;DHT22;44730;53.158;6.398;2023-04-09T00:15:46;8.50;99.90
58951;DHT22;44730;53.158;6.398;2023-04-09T00:18:18;8.50;99.90
58951;DHT22;44730;53.158;6.398;2023-04-09T00:20:43;8.50;99.90
58951;DHT22;44730;53.158;6.398;2023-04-09T00:23:09;8.50;99.90
58951;DHT22;44730;53.158;6.398;2023-04-09T00:25:50;8.50;99.90
58951;DHT22;44730;53.158;6.398;2023-04-09T00:28:16;8.50;99.90
58951;DHT22;44730;53.158;6.398;2023-04-09T00:30:42;8.40;99.90
58951;DHT22;44730;53.158;6.398;2023-04-09T00:33:07;8.40;99.90
58951;DHT22;44730;53.158;6.398;2023-04-09T00:35:33;8.40;99.90
58951;DHT22;44730;53.158;6.398;2023-04-09T00:37:59;8.40;99.90
58951;DHT22;44730;53.158;6.398;2023-04-09T00:40:24;8.40;99.90
58951;DHT22;44730;53.158;6.398;2023-04-09T00:42:50;8.40;99.90
58951;DHT22;44730;53.158;6.398;2023-04-09T00:45:16;8.40;99.90
58951;DHT22;44730;53.158;6.398;2023-04-09T00:47:41;8.30;99.90
58951;DHT22;44730;53.158;6.398;2023-04-09T00:50:10;8.30;99.90
58951;DHT22;44730;53.158;6.398;2023-04-09T00:52:36;8.30;99.90
58951;DHT22;44730;53.158;6.398;2023-04-09T00:55:04;8.40;99.90
58951;DHT22;44730;53.158;6.398;2023-04-09T00:57:30;8.30;99.90
58951;DHT22;44730;53.158;6.398;2023-04-09T00:59:56;8.30;99.90
58951;DHT22;44730;53.158;6.398;2023-04-09T01:02:22;8.30;99.90
58951;DHT22;44730;53.158;6.398;2023-04-09T01:04:48;8.30;99.90
58951;DHT22;44730;53.158;6.398;2023-04-09T01:15:25;8.20;99.90
58951;DHT22;44730;53.158;6.398;2023-04-09T01:20:44;8.20;99.90
58951;DHT22;44730;53.158;6.398;2023-04-09T01:28:52;8.10;99.90
58951;DHT22;44730;53.158;6.398;2023-04-09T01:31:20;8.10;99.90
58951;DHT22;44730;53.158;6.398;2023-04-09T01:33:50;8.10;99.90
58951;DHT22;44730;53.158;6.398;2023-04-09T01:36:17;8.10;99.90
58951;DHT22;44730;53.158;6.398;2023-04-09T01:38:44;8.10;99.90
58951;DHT22;44730;53.158;6.398;2023-04-09T01:41:14;8.10;99.90
58951;DHT22;44730;53.158;6.398;2023-04-09T01:43:41;8.10;99.90
58951;DHT22;44730;53.158;6.398;2023-04-09T01:46:08;8.10;99.90
58951;DHT22;44730;53.158;6.398;2023-04-09T01:48:36;8.10;99.90
58951;DHT22;44730;53.158;6.398;2023-04-09T01:51:02;8.10;99.90
58951;DHT22;44730;53.158;6.398;2023-04-09T01:53:28;8.10;99.90
58951;DHT22;44730;53.158;6.398;2023-04-09T01:55:57;8.10;99.90
58951;DHT22;44730;53.158;6.398;2023-04-09T01:58:24;8.10;99.90
58951;DHT22;44730;53.158;6.398;2023-04-09T02:00:55;8.10;99.90
58951;DHT22;44730;53.158;6.398;2023-04-09T02:03:36;8.10;99.90
58951;DHT22;44730;53.158;6.398;2023-04-09T02:06:13;8.10;99.90
58951;DHT22;44730;53.158;6.398;2023-04-09T02:08:44;8.00;99.90
58951;DHT22;44730;53.158;6.398;2023-04-09T02:11:13;8.00;99.90
58951;DHT22;44730;53.158;6.398;2023-04-09T02:13:40;8.00;99.90
58951;DHT22;44730;53.158;6.398;2023-04-09T02:16:07;8.10;99.90
58951;DHT22;44730;53.158;6.398;2023-04-09T02:18:33;8.10;99.90
58951;DHT22;44730;53.158;6.398;2023-04-09T02:20:59;8.10;99.90
58951;DHT22;44730;53.158;6.398;2023-04-09T02:23:25;8.10;99.90
58951;DHT22;44730;53.158;6.398;2023-04-09T02:25:52;8.00;99.90
58951;DHT22;44730;53.158;6.398;2023-04-09T02:28:19;8.00;99.90
58951;DHT22;44730;53.158;6.398;2023-04-09T02:30:45;8.00;99.90
58951;DHT22;44730;53.158;6.398;2023-04-09T02:33:10;8.00;99.90
58951;DHT22;44730;53.158;6.398;2023-04-09T02:35:36;8.00;99.90
58951;DHT22;44730;53.158;6.398;2023-04-09T02:38:02;8.00;99.90
58951;DHT22;44730;53.158;6.398;2023-04-09T02:40:28;8.00;99.90
58951;DHT22;44730;53.158;6.398;2023-04-09T02:42:54;8.00;99.90
58951;DHT22;44730;53.158;6.398;2023-04-09T02:45:19;8.00;99.90
58951;DHT22;44730;53.158;6.398;2023-04-09T02:47:45;8.00;99.90
58951;DHT22;44730;53.158;6.398;2023-04-09T02:50:11;7.90;99.90
58951;DHT22;44730;53.158;6.398;2023-04-09T02:52:36;7.90;99.90
58951;DHT22;44730;53.158;6.398;2023-04-09T02:55:02;7.90;99.90
58951;DHT22;44730;53.158;6.398;2023-04-09T02:57:28;7.90;99.90
58951;DHT22;44730;53.158;6.398;2023-04-09T02:59:54;7.80;99.90
58951;DHT22;44730;53.158;6.398;2023-04-09T03:02:20;7.80;99.90
58951;DHT22;44730;53.158;6.398;2023-04-09T03:04:46;7.80;99.90
58951;DHT22;44730;53.158;6.398;2023-04-09T03:07:11;7.80;99.90
58951;DHT22;44730;53.158;6.398;2023-04-09T03:09:37;7.70;99.90
58951;DHT22;44730;53.158;6.398;2023-04-09T03:12:03;7.70;99.90
58951;DHT22;44730;53.158;6.398;2023-04-09T03:14:28;7.70;99.90
58951;DHT22;44730;53.158;6.398;2023-04-09T03:16:54;7.60;99.90
58951;DHT22;44730;53.158;6.398;2023-04-09T03:19:20;7.60;99.90
58951;DHT22;44730;53.158;6.398;2023-04-09T03:21:46;7.60;99.90
58951;DHT22;44730;53.158;6.398;2023-04-09T03:24:13;7.60;99.90
58951;DHT22;44730;53.158;6.398;2023-04-09T03:26:40;7.60;99.90
58951;DHT22;44730;53.158;6.398;2023-04-09T03:29:06;7.50;99.90
58951;DHT22;44730;53.158;6.398;2023-04-09T03:31:32;7.50;99.90
58951;DHT22;44730;53.158;6.398;2023-04-09T03:33:58;7.50;99.90
58951;DHT22;44730;53.158;6.398;2023-04-09T03:36:24;7.50;99.90
58951;DHT22;44730;53.158;6.398;2023-04-09T03:38:49;7.50;99.90
58951;DHT22;44730;53.158;6.398;2023-04-09T03:41:15;7.50;99.90
58951;DHT22;44730;53.158;6.398;2023-04-09T03:43:45;7.40;99.90
58951;DHT22;44730;53.158;6.398;2023-04-09T03:46:15;7.50;99.90
58951;DHT22;44730;53.158;6.398;2023-04-09T03:48:40;7.40;99.90
58951;DHT22;44730;53.158;6.398;2023-04-09T03:51:11;7.40;99.90
58951;DHT22;44730;53.158;6.398;2023-04-09T03:53:37;7.40;99.90
58951;DHT22;44730;53.158;6.398;2023-04-09T03:56:03;7.40;99.90
58951;DHT22;44730;53.158;6.398;2023-04-09T03:58:30;7.40;99.90
58951;DHT22;44730;53.158;6.398;2023-04-09T04:00:55;7.40;99.90
58951;DHT22;44730;53.158;6.398;2023-04-09T04:03:21;7.30;99.90
58951;DHT22;44730;53.158;6.398;2023-04-09T04:05:47;7.30;99.90
58951;DHT22;44730;53.158;6.398;2023-04-09T04:08:13;7.40;99.90
58951;DHT22;44730;53.158;6.398;2023-04-09T04:10:38;7.40;99.90
58951;DHT22;44730;53.158;6.398;2023-04-09T04:13:07;7.30;99.90
58951;DHT22;44730;53.158;6.398;2023-04-09T04:15:38;7.40;99.90
58951;DHT22;44730;53.158;6.398;2023-04-09T04:18:05;7.30;99.90
58951;DHT22;44730;53.158;6.398;2023-04-09T04:20:34;7.40;99.90
58951;DHT22;44730;53.158;6.398;2023-04-09T04:23:01;7.40;99.90
58951;DHT22;44730;53.158;6.398;2023-04-09T04:25:26;7.40;99.90
58951;DHT22;44730;53.158;6.398;2023-04-09T04:27:52;7.40;99.90
58951;DHT22;44730;53.158;6.398;2023-04-09T04:30:20;7.40;99.90
58951;DHT22;44730;53.158;6.398;2023-04-09T04:32:46;7.40;99.90
58951;DHT22;44730;53.158;6.398;2023-04-09T04:35:12;7.40;99.90
58951;DHT22;44730;53.158;6.398;2023-04-09T04:37:38;7.40;99.90
58951;DHT22;44730;53.158;6.398;2023-04-09T04:40:06;7.40;99.90
58951;DHT22;44730;53.158;6.398;2023-04-09T04:42:32;7.40;99.90
58951;DHT22;44730;53.158;6.398;2023-04-09T04:44:59;7.40;99.90
58951;DHT22;44730;53.158;6.398;2023-04-09T04:47:25;7.40;99.90
58951;DHT22;44730;53.158;6.398;2023-04-09T04:49:51;7.40;99.90
58951;DHT22;44730;53.158;6.398;2023-04-09T04:52:18;7.40;99.90
58951;DHT22;44730;53.158;6.398;2023-04-09T04:54:43;7.50;99.90
58951;DHT22;44730;53.158;6.398;2023-04-09T04:57:09;7.50;99.90
58951;DHT22;44730;53.158;6.398;2023-04-09T04:59:39;7.50;99.90
58951;DHT22;44730;53.158;6.398;2023-04-09T05:02:05;7.50;99.90
58951;DHT22;44730;53.158;6.398;2023-04-09T05:04:31;7.50;99.90
58951;DHT22;44730;53.158;6.398;2023-04-09T05:06:57;7.50;99.90
58951;DHT22;44730;53.158;6.398;2023-04-09T05:09:23;7.50;99.90
58951;DHT22;44730;53.158;6.398;2023-04-09T05:11:48;7.50;99.90
58951;DHT22;44730;53.158;6.398;2023-04-09T05:14:14;7.50;99.90
58951;DHT22;44730;53.158;6.398;2023-04-09T05:16:40;7.50;99.90
58951;DHT22;44730;53.158;6.398;2023-04-09T05:19:06;7.60;99.90
58951;DHT22;44730;53.158;6.398;2023-04-09T05:21:31;7.50;99.90
58951;DHT22;44730;53.158;6.398;2023-04-09T05:23:57;7.50;99.90
58951;DHT22;44730;53.158;6.398;2023-04-09T05:26:23;7.60;99.90
58951;DHT22;44730;53.158;6.398;2023-04-09T05:28:49;7.60;99.90
58951;DHT22;44730;53.158;6.398;2023-04-09T05:31:15;7.60;99.90
58951;DHT22;44730;53.158;6.398;2023-04-09T05:33:42;7.60;99.90
58951;DHT22;44730;53.158;6.398;2023-04-09T05:36:12;7.60;99.90
58951;DHT22;44730;53.158;6.398;2023-04-09T05:38:38;7.60;99.90
58951;DHT22;44730;53.158;6.398;2023-04-09T05:41:05;7.60;99.90
58951;DHT22;44730;53.158;6.398;2023-04-09T05:43:30;7.70;99.90
58951;DHT22;44730;53.158;6.398;2023-04-09T05:45:56;7.60;99.90
58951;DHT22;44730;53.158;6.398;2023-04-09T05:48:22;7.70;99.90
58951;DHT22;44730;53.158;6.398;2023-04-09T05:50:49;7.70;99.90
58951;DHT22;44730;53.158;6.398;2023-04-09T05:53:15;7.80;99.90
58951;DHT22;44730;53.158;6.398;2023-04-09T05:55:41;7.70;99.90
58951;DHT22;44730;53.158;6.398;2023-04-09T05:58:07;7.70;99.90
58951;DHT22;44730;53.158;6.398;2023-04-09T06:00:33;7.70;99.90
58951;DHT22;44730;53.158;6.398;2023-04-09T06:02:59;7.70;99.90
58951;DHT22;44730;53.158;6.398;2023-04-09T06:05:24;7.70;99.90
58951;DHT22;44730;53.158;6.398;2023-04-09T06:07:50;7.80;99.90
58951;DHT22;44730;53.158;6.398;2023-04-09T06:10:16;7.80;99.90
58951;DHT22;44730;53.158;6.398;2023-04-09T06:12:42;7.80;99.90
58951;DHT22;44730;53.158;6.398;2023-04-09T06:15:07;7.80;99.90
58951;DHT22;44730;53.158;6.398;2023-04-09T06:17:33;7.80;99.90
58951;DHT22;44730;53.158;6.398;2023-04-09T06:19:59;7.80;99.90
58951;DHT22;44730;53.158;6.398;2023-04-09T06:22:25;7.90;99.90
58951;DHT22;44730;53.158;6.398;2023-04-09T06:24:51;7.90;99.90
58951;DHT22;44730;53.158;6.398;2023-04-09T06:27:19;7.90;99.90
58951;DHT22;44730;53.158;6.398;2023-04-09T06:29:46;8.00;99.90
58951;DHT22;44730;53.158;6.398;2023-04-09T06:32:13;8.00;99.90
58951;DHT22;44730;53.158;6.398;2023-04-09T06:34:39;8.00;99.90
58951;DHT22;44730;53.158;6.398;2023-04-09T06:37:04;8.00;99.90
58951;DHT22;44730;53.158;6.398;2023-04-09T06:39:30;8.00;99.90
58951;DHT22;44730;53.158;6.398;2023-04-09T06:41:57;8.00;99.90
58951;DHT22;44730;53.158;6.398;2023-04-09T06:44:23;8.00;99.90
58951;DHT22;44730;53.158;6.398;2023-04-09T06:46:51;8.00;99.90
58951;DHT22;44730;53.158;6.398;2023-04-09T06:49:16;8.00;99.90
58951;DHT22;44730;53.158;6.398;2023-04-09T06:51:42;8.00;99.90
58951;DHT22;44730;53.158;6.398;2023-04-09T06:54:14;8.00;99.90
58951;DHT22;44730;53.158;6.398;2023-04-09T06:56:39;8.10;99.90
58951;DHT22;44730;53.158;6.398;2023-04-09T06:59:05;8.10;99.90
58951;DHT22;44730;53.158;6.398;2023-04-09T07:01:32;8.10;99.90
58951;DHT22;44730;53.158;6.398;2023-04-09T07:04:00;8.10;99.90
58951;DHT22;44730;53.158;6.398;2023-04-09T07:06:25;8.10;99.90
58951;DHT22;44730;53.158;6.398;2023-04-09T07:08:51;8.10;99.90
58951;DHT22;44730;53.158;6.398;2023-04-09T07:11:17;8.10;99.90
58951;DHT22;44730;53.158;6.398;2023-04-09T07:13:42;8.20;99.90
58951;DHT22;44730;53.158;6.398;2023-04-09T07:16:08;8.20;99.90
58951;DHT22;44730;53.158;6.398;2023-04-09T07:18:34;8.30;99.90
58951;DHT22;44730;53.158;6.398;2023-04-09T07:21:00;8.30;99.90
58951;DHT22;44730;53.158;6.398;2023-04-09T07:23:25;8.40;99.90
58951;DHT22;44730;53.158;6.398;2023-04-09T07:25:51;8.40;99.90
58951;DHT22;44730;53.158;6.398;2023-04-09T07:28:17;8.40;99.90
58951;DHT22;44730;53.158;6.398;2023-04-09T07:30:43;8.50;99.90
58951;DHT22;44730;53.158;6.398;2023-04-09T07:33:10;8.60;99.90
58951;DHT22;44730;53.158;6.398;2023-04-09T07:35:36;8.70;99.90
58951;DHT22;44730;53.158;6.398;2023-04-09T07:38:02;8.70;99.90
58951;DHT22;44730;53.158;6.398;2023-04-09T07:40:28;8.80;99.90
58951;DHT22;44730;53.158;6.398;2023-04-09T07:42:53;8.80;99.90
58951;DHT22;44730;53.158;6.398;2023-04-09T07:45:20;8.80;99.90
58951;DHT22;44730;53.158;6.398;2023-04-09T07:47:46;8.90;99.90
58951;DHT22;44730;53.158;6.398;2023-04-09T07:50:12;8.90;99.90
58951;DHT22;44730;53.158;6.398;2023-04-09T07:52:37;8.90;99.90
58951;DHT22;44730;53.158;6.398;2023-04-09T07:55:04;8.90;99.90
58951;DHT22;44730;53.158;6.398;2023-04-09T07:57:31;8.90;99.90
58951;DHT22;44730;53.158;6.398;2023-04-09T08:00:04;9.00;99.90
58951;DHT22;44730;53.158;6.398;2023-04-09T08:02:31;9.00;99.90
58951;DHT22;44730;53.158;6.398;2023-04-09T08:04:58;9.00;99.90
58951;DHT22;44730;53.158;6.398;2023-04-09T08:07:23;9.10;99.90
58951;DHT22;44730;53.158;6.398;2023-04-09T08:09:49;9.10;99.90
58951;DHT22;44730;53.158;6.398;2023-04-09T08:12:15;9.10;99.90
58951;DHT22;44730;53.158;6.398;2023-04-09T08:14:40;9.10;99.90
58951;DHT22;44730;53.158;6.398;2023-04-09T08:17:06;9.20;99.90
58951;DHT22;44730;53.158;6.398;2023-04-09T08:19:32;9.20;99.90
58951;DHT22;44730;53.158;6.398;2023-04-09T08:21:58;9.20;99.90
58951;DHT22;44730;53.158;6.398;2023-04-09T08:24:23;9.30;99.90
58951;DHT22;44730;53.158;6.398;2023-04-09T08:26:49;9.40;99.90
58951;DHT22;44730;53.158;6.398;2023-04-09T08:29:15;9.40;99.90
58951;DHT22;44730;53.158;6.398;2023-04-09T08:31:41;9.40;99.90
58951;DHT22;44730;53.158;6.398;2023-04-09T08:34:07;9.50;99.90
58951;DHT22;44730;53.158;6.398;2023-04-09T08:36:33;9.60;99.90
58951;DHT22;44730;53.158;6.398;2023-04-09T08:39:00;9.60;99.90
58951;DHT22;44730;53.158;6.398;2023-04-09T08:41:28;9.60;99.90
58951;DHT22;44730;53.158;6.398;2023-04-09T08:43:54;9.60;99.90
58951;DHT22;44730;53.158;6.398;2023-04-09T08:46:22;9.70;99.90
58951;DHT22;44730;53.158;6.398;2023-04-09T08:48:49;9.70;99.90
58951;DHT22;44730;53.158;6.398;2023-04-09T08:51:20;9.70;99.90
58951;DHT22;44730;53.158;6.398;2023-04-09T08:53:48;9.80;99.90
58951;DHT22;44730;53.158;6.398;2023-04-09T08:56:18;9.80;99.90
58951;DHT22;44730;53.158;6.398;2023-04-09T08:58:45;9.90;99.90
58951;DHT22;44730;53.158;6.398;2023-04-09T09:01:41;9.90;99.90
58951;DHT22;44730;53.158;6.398;2023-04-09T09:04:09;9.90;99.90
58951;DHT22;44730;53.158;6.398;2023-04-09T09:06:36;10.00;99.90
58951;DHT22;44730;53.158;6.398;2023-04-09T09:09:13;10.10;99.90
58951;DHT22;44730;53.158;6.398;2023-04-09T09:11:46;10.10;99.90
58951;DHT22;44730;53.158;6.398;2023-04-09T09:14:15;10.20;99.90
58951;DHT22;44730;53.158;6.398;2023-04-09T09:16:43;10.30;99.90
58951;DHT22;44730;53.158;6.398;2023-04-09T09:19:28;10.30;99.90
58951;DHT22;44730;53.158;6.398;2023-04-09T09:21:55;10.40;99.90
58951;DHT22;44730;53.158;6.398;2023-04-09T09:24:22;10.40;99.90
58951;DHT22;44730;53.158;6.398;2023-04-09T09:26:49;10.50;99.90
58951;DHT22;44730;53.158;6.398;2023-04-09T09:29:15;10.60;99.90
58951;DHT22;44730;53.158;6.398;2023-04-09T09:31:51;10.70;99.90
58951;DHT22;44730;53.158;6.398;2023-04-09T09:34:20;10.80;99.90
58951;DHT22;44730;53.158;6.398;2023-04-09T09:36:46;10.90;99.90
58951;DHT22;44730;53.158;6.398;2023-04-09T09:39:13;11.10;99.90
58951;DHT22;44730;53.158;6.398;2023-04-09T09:41:42;11.20;99.90
58951;DHT22;44730;53.158;6.398;2023-04-09T09:44:10;11.30;99.90
58951;DHT22;44730;53.158;6.398;2023-04-09T09:46:38;11.40;99.90
58951;DHT22;44730;53.158;6.398;2023-04-09T09:49:05;11.50;99.90
58951;DHT22;44730;53.158;6.398;2023-04-09T09:51:32;11.60;99.90
58951;DHT22;44730;53.158;6.398;2023-04-09T09:53:59;11.80;99.90
58951;DHT22;44730;53.158;6.398;2023-04-09T09:56:34;11.90;99.90
58951;DHT22;44730;53.158;6.398;2023-04-09T10:01:33;12.00;99.90
58951;DHT22;44730;53.158;6.398;2023-04-09T10:04:01;12.00;99.90
58951;DHT22;44730;53.158;6.398;2023-04-09T10:06:29;12.00;99.90
58951;DHT22;44730;53.158;6.398;2023-04-09T10:08:57;12.10;99.90
58951;DHT22;44730;53.158;6.398;2023-04-09T10:11:24;12.10;99.90
58951;DHT22;44730;53.158;6.398;2023-04-09T10:13:56;12.30;99.90
58951;DHT22;44730;53.158;6.398;2023-04-09T10:16:24;12.40;99.90
58951;DHT22;44730;53.158;6.398;2023-04-09T10:18:54;12.40;99.90
58951;DHT22;44730;53.158;6.398;2023-04-09T10:21:46;12.60;99.90
58951;DHT22;44730;53.158;6.398;2023-04-09T10:24:15;12.80;99.90
58951;DHT22;44730;53.158;6.398;2023-04-09T10:26:42;13.00;99.90
58951;DHT22;44730;53.158;6.398;2023-04-09T10:29:13;13.30;99.90
58951;DHT22;44730;53.158;6.398;2023-04-09T10:32:02;13.90;99.90
58951;DHT22;44730;53.158;6.398;2023-04-09T10:34:29;14.10;99.90
58951;DHT22;44730;53.158;6.398;2023-04-09T10:36:59;14.10;99.90
58951;DHT22;44730;53.158;6.398;2023-04-09T10:39:26;14.20;99.90
58951;DHT22;44730;53.158;6.398;2023-04-09T10:41:53;14.70;99.90
58951;DHT22;44730;53.158;6.398;2023-04-09T10:44:21;15.30;99.90
58951;DHT22;44730;53.158;6.398;2023-04-09T10:46:47;15.70;99.90
58951;DHT22;44730;53.158;6.398;2023-04-09T10:49:22;15.70;99.90
58951;DHT22;44730;53.158;6.398;2023-04-09T10:51:51;15.90;99.90
58951;DHT22;44730;53.158;6.398;2023-04-09T10:59:37;16.20;99.90
58951;DHT22;44730;53.158;6.398;2023-04-09T11:02:07;16.10;99.90
58951;DHT22;44730;53.158;6.398;2023-04-09T11:04:38;15.90;99.90
58951;DHT22;44730;53.158;6.398;2023-04-09T11:07:06;16.00;99.90
58951;DHT22;44730;53.158;6.398;2023-04-09T11:09:36;16.50;99.90
58951;DHT22;44730;53.158;6.398;2023-04-09T11:12:02;16.70;99.90
58951;DHT22;44730;53.158;6.398;2023-04-09T11:14:28;16.60;99.90
58951;DHT22;44730;53.158;6.398;2023-04-09T11:16:54;17.00;99.90
58951;DHT22;44730;53.158;6.398;2023-04-09T11:19:20;17.90;99.90
58951;DHT22;44730;53.158;6.398;2023-04-09T11:21:47;18.60;99.90
58951;DHT22;44730;53.158;6.398;2023-04-09T11:24:13;19.00;99.90
58951;DHT22;44730;53.158;6.398;2023-04-09T11:26:39;18.50;99.90
58951;DHT22;44730;53.158;6.398;2023-04-09T11:29:08;18.50;99.90
58951;DHT22;44730;53.158;6.398;2023-04-09T11:31:34;18.20;99.90
58951;DHT22;44730;53.158;6.398;2023-04-09T11:34:01;18.40;99.90
58951;DHT22;44730;53.158;6.398;2023-04-09T11:36:27;18.60;99.90
58951;DHT22;44730;53.158;6.398;2023-04-09T11:38:54;18.30;99.90
58951;DHT22;44730;53.158;6.398;2023-04-09T11:41:36;17.80;99.90
58951;DHT22;44730;53.158;6.398;2023-04-09T11:44:12;17.80;99.90
58951;DHT22;44730;53.158;6.398;2023-04-09T11:46:38;17.90;99.90
58951;DHT22;44730;53.158;6.398;2023-04-09T11:49:05;18.60;99.90
58951;DHT22;44730;53.158;6.398;2023-04-09T11:51:32;18.20;99.90
58951;DHT22;44730;53.158;6.398;2023-04-09T11:54:05;18.50;99.90
58951;DHT22;44730;53.158;6.398;2023-04-09T11:56:31;18.80;99.90
58951;DHT22;44730;53.158;6.398;2023-04-09T11:58:58;19.60;99.90
58951;DHT22;44730;53.158;6.398;2023-04-09T12:01:24;19.80;98.90
58951;DHT22;44730;53.158;6.398;2023-04-09T12:03:54;20.00;98.50
58951;DHT22;44730;53.158;6.398;2023-04-09T12:06:21;20.60;97.40
58951;DHT22;44730;53.158;6.398;2023-04-09T12:08:54;20.70;96.60
58951;DHT22;44730;53.158;6.398;2023-04-09T12:11:27;20.20;96.10
58951;DHT22;44730;53.158;6.398;2023-04-09T12:14:03;20.30;96.50
58951;DHT22;44730;53.158;6.398;2023-04-09T12:16:34;20.70;95.70
58951;DHT22;44730;53.158;6.398;2023-04-09T12:19:10;20.70;95.00
58951;DHT22;44730;53.158;6.398;2023-04-09T12:21:50;20.30;95.40
58951;DHT22;44730;53.158;6.398;2023-04-09T12:24:18;20.40;94.30
58951;DHT22;44730;53.158;6.398;2023-04-09T12:26:45;20.70;94.50
58951;DHT22;44730;53.158;6.398;2023-04-09T12:29:13;21.40;94.30
58951;DHT22;44730;53.158;6.398;2023-04-09T12:31:40;20.80;93.60
58951;DHT22;44730;53.158;6.398;2023-04-09T12:34:06;20.50;94.20
58951;DHT22;44730;53.158;6.398;2023-04-09T12:36:32;20.90;94.10
58951;DHT22;44730;53.158;6.398;2023-04-09T12:38:57;21.50;92.80
58951;DHT22;44730;53.158;6.398;2023-04-09T12:41:23;21.40;91.90
58951;DHT22;44730;53.158;6.398;2023-04-09T12:43:49;21.10;92.40
58951;DHT22;44730;53.158;6.398;2023-04-09T12:46:16;20.50;92.40
58951;DHT22;44730;53.158;6.398;2023-04-09T12:48:42;20.50;92.50
58951;DHT22;44730;53.158;6.398;2023-04-09T12:51:08;20.10;91.90
58951;DHT22;44730;53.158;6.398;2023-04-09T12:53:35;20.10;92.10
58951;DHT22;44730;53.158;6.398;2023-04-09T12:56:01;20.20;92.70
58951;DHT22;44730;53.158;6.398;2023-04-09T12:58:27;20.30;92.10
58951;DHT22;44730;53.158;6.398;2023-04-09T13:00:53;20.70;91.70
58951;DHT22;44730;53.158;6.398;2023-04-09T13:03:21;21.30;91.00
58951;DHT22;44730;53.158;6.398;2023-04-09T13:05:48;22.30;91.50
58951;DHT22;44730;53.158;6.398;2023-04-09T13:08:13;22.80;88.80
58951;DHT22;44730;53.158;6.398;2023-04-09T13:10:39;23.30;86.00
58951;DHT22;44730;53.158;6.398;2023-04-09T13:13:05;23.70;84.10
58951;DHT22;44730;53.158;6.398;2023-04-09T13:15:36;24.00;81.80
58951;DHT22;44730;53.158;6.398;2023-04-09T13:18:02;24.40;79.20
58951;DHT22;44730;53.158;6.398;2023-04-09T13:20:28;24.60;77.80
58951;DHT22;44730;53.158;6.398;2023-04-09T13:22:55;25.20;76.60
58951;DHT22;44730;53.158;6.398;2023-04-09T13:25:20;25.20;74.60
58951;DHT22;44730;53.158;6.398;2023-04-09T13:27:46;25.50;71.70
58951;DHT22;44730;53.158;6.398;2023-04-09T13:30:12;25.80;71.20
58951;DHT22;44730;53.158;6.398;2023-04-09T13:32:38;25.80;70.00
58951;DHT22;44730;53.158;6.398;2023-04-09T13:35:05;25.80;68.50
58951;DHT22;44730;53.158;6.398;2023-04-09T13:37:31;26.10;68.50
58951;DHT22;44730;53.158;6.398;2023-04-09T13:39:56;26.40;66.80
58951;DHT22;44730;53.158;6.398;2023-04-09T13:42:22;26.40;65.20
58951;DHT22;44730;53.158;6.398;2023-04-09T13:44:48;25.90;64.40
58951;DHT22;44730;53.158;6.398;2023-04-09T13:47:15;25.60;65.60
58951;DHT22;44730;53.158;6.398;2023-04-09T13:49:41;25.30;63.40
58951;DHT22;44730;53.158;6.398;2023-04-09T13:52:08;25.50;64.00
58951;DHT22;44730;53.158;6.398;2023-04-09T13:54:34;25.80;62.70
58951;DHT22;44730;53.158;6.398;2023-04-09T13:57:00;26.10;62.20
58951;DHT22;44730;53.158;6.398;2023-04-09T13:59:26;26.00;62.10
58951;DHT22;44730;53.158;6.398;2023-04-09T14:01:52;26.20;61.90
58951;DHT22;44730;53.158;6.398;2023-04-09T14:04:17;26.30;60.60
58951;DHT22;44730;53.158;6.398;2023-04-09T14:06:44;26.20;60.90
58951;DHT22;44730;53.158;6.398;2023-04-09T14:09:11;25.30;60.80
58951;DHT22;44730;53.158;6.398;2023-04-09T14:11:37;25.70;62.00
58951;DHT22;44730;53.158;6.398;2023-04-09T14:14:03;25.90;61.00
58951;DHT22;44730;53.158;6.398;2023-04-09T14:16:29;26.40;60.30
58951;DHT22;44730;53.158;6.398;2023-04-09T14:18:56;26.10;60.30
58951;DHT22;44730;53.158;6.398;2023-04-09T14:21:22;25.80;60.20
58951;DHT22;44730;53.158;6.398;2023-04-09T14:23:48;26.00;60.70
58951;DHT22;44730;53.158;6.398;2023-04-09T14:26:14;25.90;60.40
58951;DHT22;44730;53.158;6.398;2023-04-09T14:28:44;25.90;58.90
58951;DHT22;44730;53.158;6.398;2023-04-09T14:31:11;26.10;60.10
58951;DHT22;44730;53.158;6.398;2023-04-09T14:33:39;25.80;57.70
58951;DHT22;44730;53.158;6.398;2023-04-09T14:36:05;26.00;57.60
58951;DHT22;44730;53.158;6.398;2023-04-09T14:38:32;26.40;56.90
58951;DHT22;44730;53.158;6.398;2023-04-09T14:40:57;26.10;57.40
58951;DHT22;44730;53.158;6.398;2023-04-09T14:43:24;26.30;57.50
58951;DHT22;44730;53.158;6.398;2023-04-09T14:45:50;26.10;56.70
58951;DHT22;44730;53.158;6.398;2023-04-09T14:48:16;26.00;57.00
58951;DHT22;44730;53.158;6.398;2023-04-09T14:50:42;25.60;56.00
58951;DHT22;44730;53.158;6.398;2023-04-09T14:53:08;25.80;56.80
58951;DHT22;44730;53.158;6.398;2023-04-09T14:55:34;26.00;56.20
58951;DHT22;44730;53.158;6.398;2023-04-09T14:58:01;25.90;56.60
58951;DHT22;44730;53.158;6.398;2023-04-09T15:00:29;25.30;56.30
58951;DHT22;44730;53.158;6.398;2023-04-09T15:02:55;24.20;57.80
58951;DHT22;44730;53.158;6.398;2023-04-09T15:05:22;23.00;58.60
58951;DHT22;44730;53.158;6.398;2023-04-09T15:07:48;21.90;60.30
58951;DHT22;44730;53.158;6.398;2023-04-09T15:10:14;20.70;61.90
58951;DHT22;44730;53.158;6.398;2023-04-09T15:12:40;20.20;63.10
58951;DHT22;44730;53.158;6.398;2023-04-09T15:15:07;20.00;64.20
58951;DHT22;44730;53.158;6.398;2023-04-09T15:17:34;20.10;63.80
58951;DHT22;44730;53.158;6.398;2023-04-09T15:20:00;19.70;63.70
58951;DHT22;44730;53.158;6.398;2023-04-09T15:22:25;19.40;64.60
58951;DHT22;44730;53.158;6.398;2023-04-09T15:24:52;19.20;65.10
58951;DHT22;44730;53.158;6.398;2023-04-09T15:27:18;18.80;64.70
58951;DHT22;44730;53.158;6.398;2023-04-09T15:29:44;18.70;65.20
58951;DHT22;44730;53.158;6.398;2023-04-09T15:32:09;18.40;65.10
58951;DHT22;44730;53.158;6.398;2023-04-09T15:34:35;18.20;66.00
58951;DHT22;44730;53.158;6.398;2023-04-09T15:37:01;18.00;67.70
58951;DHT22;44730;53.158;6.398;2023-04-09T15:39:27;17.80;67.60
58951;DHT22;44730;53.158;6.398;2023-04-09T15:41:56;18.30;67.60
58951;DHT22;44730;53.158;6.398;2023-04-09T15:44:24;18.80;66.40
58951;DHT22;44730;53.158;6.398;2023-04-09T15:46:49;19.30;65.20
58951;DHT22;44730;53.158;6.398;2023-04-09T15:49:16;19.60;65.00
58951;DHT22;44730;53.158;6.398;2023-04-09T15:51:42;19.20;64.60
58951;DHT22;44730;53.158;6.398;2023-04-09T15:54:07;18.80;65.40
58951;DHT22;44730;53.158;6.398;2023-04-09T15:56:33;18.60;65.70
58951;DHT22;44730;53.158;6.398;2023-04-09T15:59:01;18.60;66.40
58951;DHT22;44730;53.158;6.398;2023-04-09T16:01:30;18.40;66.00
58951;DHT22;44730;53.158;6.398;2023-04-09T16:03:56;17.90;66.80